Poplar Plains, Kentucky
Current Conditions -  °F | °C
As of 7:15 PM on Friday 24 Oct 2014 (Local Time) from KFGX Reporting Station
Clear Clear  
Wind Chill: 55°   Ceiling: Unl
Heat Index: 55°   Visibility: 10mi
Dew Point: 41°   Wind: 5mph
Humidity: 60%   Direction: 240°WSW
Pressure: 30.06"   Gusts: NA
Location:  38.436°N, 83.6931°W
Report Text: KFGX 242315Z AUTO 24004KT 10SM CLR 13/05 A3006 RMK AO2 T01270050
Loading
Personal Weather Stations






























Interactive Weather Map
Tropical Storm Tracking
New forecast layout! Learn more

10-Day Weather Forecast

Advertisements
Track Severe Weather on mobile